Time;durP1;ratioP1;P1;durP2;ratioP2;P2;SDS_P1;SDS_P2;PMS_P1;PMS_P2;Temp;Humidity;BMP_temperature;BMP_pressure;BME280_temperature;BME280_humidity;BME280_pressure;Samples;Min_cycle;Max_cycle;Signal;HPM_P1;HPM_P2
2021/07/09 00:00:50;;;;;;;5.72;2.50;;;23.80;72.50;;;;;;3162936;28;20044;-81
2021/07/09 00:02:21;;;;;;;4.75;2.83;;;23.80;72.80;;;;;;3163347;28;20044;-80
2021/07/09 00:03:52;;;;;;;6.88;2.83;;;23.70;72.60;;;;;;3162590;28;20423;-80
2021/07/09 00:05:23;;;;;;;5.38;2.88;;;23.80;72.80;;;;;;3163620;28;20044;-80
2021/07/09 00:06:55;;;;;;;5.43;2.67;;;23.80;72.80;;;;;;3163367;28;20044;-80
2021/07/09 00:08:26;;;;;;;3.50;2.50;;;23.70;72.80;;;;;;3163011;28;20044;-81
2021/07/09 00:09:57;;;;;;;5.32;2.50;;;23.80;72.90;;;;;;3163400;28;20508;-80
2021/07/09 00:11:28;;;;;;;2.92;2.60;;;23.70;72.70;;;;;;3162906;28;20080;-80
2021/07/09 00:13:00;;;;;;;6.20;2.60;;;23.80;72.90;;;;;;3163553;28;20514;-80
2021/07/09 00:14:31;;;;;;;6.47;3.08;;;23.70;72.90;;;;;;3163812;28;20068;-80
2021/07/09 00:16:05;;;;;;;3.60;2.35;;;23.70;72.90;;;;;;3163427;28;20146;-81
2021/07/09 00:17:36;;;;;;;3.85;2.50;;;23.70;72.90;;;;;;3164572;28;20146;-80
2021/07/09 00:19:07;;;;;;;4.47;2.63;;;23.70;73.00;;;;;;3163107;28;20087;-80
2021/07/09 00:20:39;;;;;;;2.80;2.50;;;23.70;73.00;;;;;;3162802;28;20608;-80
2021/07/09 00:22:10;;;;;;;4.20;2.70;;;23.70;73.00;;;;;;3164152;28;20072;-80
2021/07/09 00:23:41;;;;;;;4.45;2.67;;;23.70;73.20;;;;;;3163631;28;20078;-80
2021/07/09 00:25:13;;;;;;;4.50;2.58;;;23.70;73.00;;;;;;3163502;28;20047;-80
2021/07/09 00:26:45;;;;;;;6.38;2.60;;;23.70;73.00;;;;;;3164229;28;20078;-80
2021/07/09 00:28:16;;;;;;;4.53;2.58;;;23.70;73.10;;;;;;3164429;28;20522;-80
2021/07/09 00:29:47;;;;;;;4.30;2.70;;;23.70;73.80;;;;;;3164303;28;20044;-80
2021/07/09 00:31:19;;;;;;;3.13;2.72;;;23.70;73.20;;;;;;3163445;28;20097;-80
2021/07/09 00:32:51;;;;;;;4.47;2.60;;;23.70;73.30;;;;;;3164107;28;20058;-80
2021/07/09 00:34:22;;;;;;;5.30;2.42;;;23.70;73.30;;;;;;3186279;22;20079;-79
2021/07/09 00:35:53;;;;;;;3.05;2.75;;;23.70;73.20;;;;;;3160751;28;20080;-78
2021/07/09 00:37:25;;;;;;;5.13;2.78;;;23.70;73.20;;;;;;3156070;28;20389;-81
2021/07/09 00:38:56;;;;;;;2.97;2.40;;;23.70;73.30;;;;;;3161100;28;20074;-80
2021/07/09 00:40:27;;;;;;;4.68;2.30;;;23.70;73.30;;;;;;3160773;28;20075;-77
2021/07/09 00:41:59;;;;;;;2.83;2.55;;;23.70;73.30;;;;;;3161349;28;20389;-80
2021/07/09 00:43:29;;;;;;;3.10;2.25;;;23.70;73.20;;;;;;3160800;28;20082;-78
2021/07/09 00:45:01;;;;;;;3.90;2.40;;;23.70;73.20;;;;;;3161244;28;20488;-78
2021/07/09 00:46:35;;;;;;;7.03;2.67;;;23.70;73.20;;;;;;3161229;28;20086;-79
2021/07/09 00:48:06;;;;;;;2.92;2.40;;;23.70;73.00;;;;;;3161532;28;20453;-77
2021/07/09 00:49:38;;;;;;;3.53;2.40;;;23.70;73.30;;;;;;3161781;28;20048;-78
2021/07/09 00:51:10;;;;;;;3.85;2.40;;;23.70;73.40;;;;;;3161804;28;20496;-79
2021/07/09 00:52:42;;;;;;;4.07;2.63;;;23.70;73.40;;;;;;3161132;28;20136;-80
2021/07/09 00:54:13;;;;;;;2.55;2.22;;;23.70;73.30;;;;;;3161557;28;20079;-80
2021/07/09 00:55:45;;;;;;;5.57;2.60;;;23.70;73.30;;;;;;3161612;28;20071;-77
2021/07/09 00:57:16;;;;;;;3.67;2.70;;;23.70;73.50;;;;;;3161459;28;20107;-79
2021/07/09 00:58:48;;;;;;;5.55;2.80;;;23.70;73.50;;;;;;3161739;28;20071;-80
2021/07/09 01:00:20;;;;;;;8.73;2.50;;;23.70;73.70;;;;;;3159524;28;20040;-80
2021/07/09 01:01:56;;;;;;;3.88;2.88;;;23.70;73.50;;;;;;3156223;28;20059;-81
2021/07/09 01:03:27;;;;;;;7.65;2.65;;;23.70;73.50;;;;;;3161232;28;20052;-80
2021/07/09 01:04:58;;;;;;;6.88;2.65;;;23.70;73.60;;;;;;3161477;28;20086;-80
2021/07/09 01:06:29;;;;;;;5.53;2.55;;;23.70;73.60;;;;;;3161258;28;20051;-80
2021/07/09 01:08:03;;;;;;;5.53;2.88;;;23.70;73.50;;;;;;3160876;28;20075;-78
2021/07/09 01:09:34;;;;;;;7.82;3.03;;;23.70;73.50;;;;;;3160544;28;20090;-77
2021/07/09 01:11:05;;;;;;;11.25;2.40;;;23.70;73.30;;;;;;3160796;28;20055;-78
2021/07/09 01:12:37;;;;;;;9.48;2.80;;;23.70;73.50;;;;;;3161279;28;20481;-77
2021/07/09 01:14:08;;;;;;;7.55;2.20;;;23.70;73.40;;;;;;3161322;28;20044;-80
2021/07/09 01:15:40;;;;;;;5.03;2.60;;;23.70;73.30;;;;;;3160287;28;20048;-78
2021/07/09 01:17:13;;;;;;;8.00;2.70;;;23.70;73.30;;;;;;3161038;28;20044;-80
2021/07/09 01:18:45;;;;;;;7.40;2.38;;;23.70;73.30;;;;;;3160438;28;20491;-81
2021/07/09 01:20:17;;;;;;;3.95;2.80;;;23.70;73.20;;;;;;3157174;28;20056;-80
2021/07/09 01:21:48;;;;;;;5.22;2.28;;;23.70;73.20;;;;;;3148898;28;20412;-80
2021/07/09 01:23:19;;;;;;;9.05;2.80;;;23.70;73.20;;;;;;3156187;28;20082;-80
2021/07/09 01:24:52;;;;;;;7.25;2.70;;;23.70;73.10;;;;;;3160344;28;20047;-80
2021/07/09 01:26:23;;;;;;;;;;;23.70;73.10;;;;;;3161216;28;20109;-80
2021/07/09 01:27:56;;;;;;;3.65;2.20;;;23.70;73.10;;;;;;3158748;28;19967;-80
2021/07/09 01:29:27;;;;;;;7.45;2.30;;;23.70;73.10;;;;;;3153959;28;20049;-80
2021/07/09 01:30:59;;;;;;;5.25;2.40;;;23.70;73.10;;;;;;3148163;28;20107;-80
2021/07/09 01:32:30;;;;;;;5.45;2.40;;;23.70;73.00;;;;;;3149239;28;20052;-80
2021/07/09 01:34:02;;;;;;;17.15;2.88;;;23.70;73.10;;;;;;3158372;28;20105;-81
2021/07/09 01:35:33;;;;;;;13.30;2.88;;;23.70;73.60;;;;;;3160039;28;20532;-80
2021/07/09 01:37:11;;;;;;;14.00;3.50;;;23.70;73.50;;;;;;3153743;28;20468;-80
2021/07/09 01:38:42;;;;;;;16.95;2.70;;;23.70;73.40;;;;;;3147848;28;20049;-81
2021/07/09 01:40:16;;;;;;;11.82;2.42;;;23.70;73.30;;;;;;3147703;28;20412;-79
2021/07/09 01:41:48;;;;;;;13.02;2.80;;;23.70;73.30;;;;;;3151210;28;20083;-80
2021/07/09 01:43:20;;;;;;;7.53;2.65;;;23.70;73.20;;;;;;3160741;28;20072;-80
2021/07/09 01:44:50;;;;;;;14.00;3.22;;;23.70;73.20;;;;;;3160767;28;20578;-79
2021/07/09 01:46:22;;;;;;;10.32;2.78;;;23.70;73.20;;;;;;3160536;28;20047;-79
2021/07/09 01:47:53;;;;;;;9.30;3.15;;;23.60;73.10;;;;;;3160855;28;20134;-81
2021/07/09 01:49:24;;;;;;;6.40;2.72;;;23.70;73.10;;;;;;3160738;28;20062;-80
2021/07/09 01:50:56;;;;;;;7.03;2.78;;;23.60;73.10;;;;;;3158851;28;20075;-80
2021/07/09 01:52:27;;;;;;;7.68;2.40;;;23.60;73.10;;;;;;3160472;28;20055;-79
2021/07/09 01:53:59;;;;;;;11.70;2.40;;;23.60;73.00;;;;;;3160880;28;20079;-78
2021/07/09 01:55:31;;;;;;;8.73;2.60;;;23.60;73.00;;;;;;3160769;28;20542;-79
2021/07/09 01:57:02;;;;;;;;;;;23.60;73.00;;;;;;3161086;28;20461;-80
2021/07/09 01:58:34;;;;;;;6.90;3.00;;;23.60;73.00;;;;;;3159423;28;19916;-79
2021/07/09 02:00:06;;;;;;;7.43;2.50;;;23.60;73.10;;;;;;3148176;28;20091;-78
2021/07/09 02:01:38;;;;;;;7.90;2.22;;;23.60;73.00;;;;;;3148031;28;20133;-80
2021/07/09 02:03:10;;;;;;;5.65;2.70;;;23.60;73.00;;;;;;3158115;28;20082;-81
2021/07/09 02:04:45;;;;;;;15.77;2.70;;;23.60;73.00;;;;;;3160381;28;20496;-81
2021/07/09 02:06:16;;;;;;;10.20;2.50;;;23.60;73.00;;;;;;3160910;28;20534;-80
2021/07/09 02:07:50;;;;;;;5.97;2.40;;;23.60;73.00;;;;;;3161035;28;20052;-80
2021/07/09 02:09:21;;;;;;;5.75;2.55;;;23.60;72.90;;;;;;3160989;28;20109;-80
2021/07/09 02:10:54;;;;;;;6.80;2.35;;;23.60;73.00;;;;;;3161076;28;20068;-80
2021/07/09 02:12:25;;;;;;;;;;;23.60;72.90;;;;;;3161383;28;20154;-81
2021/07/09 02:13:56;;;;;;;5.72;2.40;;;23.60;72.80;;;;;;3160627;28;19930;-80
2021/07/09 02:15:30;;;;;;;7.18;2.58;;;23.60;72.80;;;;;;3160834;28;20075;-80
2021/07/09 02:17:04;;;;;;;10.35;2.63;;;23.60;72.70;;;;;;3160534;28;20080;-80
2021/07/09 02:18:35;;;;;;;5.45;2.17;;;23.60;72.80;;;;;;3160688;28;20051;-80
2021/07/09 02:20:07;;;;;;;5.75;2.35;;;23.60;72.80;;;;;;3159852;28;20040;-80
2021/07/09 02:21:40;;;;;;;4.03;2.03;;;23.60;72.80;;;;;;3160342;28;20078;-80
2021/07/09 02:23:15;;;;;;;7.00;2.53;;;23.60;72.80;;;;;;3160860;28;20075;-80
2021/07/09 02:24:47;;;;;;;6.75;2.47;;;23.60;72.80;;;;;;3160228;28;20101;-80
2021/07/09 02:26:20;;;;;;;9.40;2.42;;;23.60;72.70;;;;;;3160457;28;20036;-80
2021/07/09 02:27:51;;;;;;;;;;;23.60;72.70;;;;;;3160829;28;20484;-80
2021/07/09 02:29:22;;;;;;;5.28;2.45;;;23.60;72.70;;;;;;3160900;28;19916;-80
2021/07/09 02:30:54;;;;;;;4.55;2.28;;;23.60;72.70;;;;;;3160086;28;20044;-80
2021/07/09 02:32:26;;;;;;;6.72;2.40;;;23.60;72.70;;;;;;3160904;28;20504;-81
2021/07/09 02:33:57;;;;;;;6.97;2.40;;;23.60;73.30;;;;;;3159718;28;20484;-78
2021/07/09 02:35:31;;;;;;;4.47;2.13;;;23.60;72.60;;;;;;3160780;28;20483;-80
2021/07/09 02:37:02;;;;;;;6.55;2.33;;;23.60;72.60;;;;;;3160727;28;20077;-79
2021/07/09 02:38:34;;;;;;;3.58;2.25;;;23.60;72.70;;;;;;3161153;28;20096;-80
2021/07/09 02:40:06;;;;;;;5.47;1.95;;;23.60;72.70;;;;;;3160268;28;20131;-79
2021/07/09 02:41:39;;;;;;;4.07;2.42;;;23.60;72.60;;;;;;3159252;28;20518;-79
2021/07/09 02:43:11;;;;;;;3.83;2.28;;;23.60;72.70;;;;;;3160993;28;20523;-80
2021/07/09 02:44:41;;;;;;;3.85;2.30;;;23.60;72.70;;;;;;3161227;28;20044;-81
2021/07/09 02:46:13;;;;;;;4.05;2.20;;;23.60;72.70;;;;;;3160648;28;20044;-79
2021/07/09 02:47:44;;;;;;;5.00;2.65;;;23.60;72.70;;;;;;3160948;28;20094;-80
2021/07/09 02:49:16;;;;;;;4.22;2.25;;;23.60;72.60;;;;;;3161141;28;20063;-80
2021/07/09 02:50:48;;;;;;;5.28;2.47;;;23.60;72.50;;;;;;3160409;28;20075;-80
2021/07/09 02:52:19;;;;;;;7.40;2.00;;;23.60;72.70;;;;;;3161149;28;20076;-80
2021/07/09 02:53:51;;;;;;;6.43;2.47;;;23.60;72.80;;;;;;3160577;28;20535;-81
2021/07/09 02:55:23;;;;;;;3.25;2.10;;;23.60;72.80;;;;;;3161195;28;20512;-80
2021/07/09 02:56:55;;;;;;;5.03;2.30;;;23.60;72.80;;;;;;3160476;28;20070;-80
2021/07/09 02:58:26;;;;;;;22.90;2.75;;;23.60;72.70;;;;;;3160686;28;20052;-79
2021/07/09 02:59:58;;;;;;;3.33;2.08;;;23.60;72.80;;;;;;3160856;28;20136;-80
2021/07/09 03:01:30;;;;;;;4.25;2.30;;;23.60;72.90;;;;;;3160687;28;20539;-80
2021/07/09 03:03:01;;;;;;;4.28;2.45;;;23.60;72.70;;;;;;3160546;28;20044;-81
2021/07/09 03:04:33;;;;;;;9.30;2.20;;;23.60;72.70;;;;;;3159183;28;20344;-80
2021/07/09 03:06:05;;;;;;;5.32;2.22;;;23.60;72.70;;;;;;3160813;28;20082;-79
2021/07/09 03:07:37;;;;;;;4.30;2.20;;;23.60;72.80;;;;;;3160617;28;20091;-78
2021/07/09 03:09:07;;;;;;;6.10;2.20;;;23.60;72.80;;;;;;3160524;28;20079;-79
2021/07/09 03:10:39;;;;;;;3.53;2.00;;;23.60;72.80;;;;;;3159377;28;20532;-78
2021/07/09 03:12:12;;;;;;;4.07;2.13;;;23.50;72.70;;;;;;3160191;28;20119;-80
2021/07/09 03:13:43;;;;;;;;;;;23.60;72.80;;;;;;3160364;28;20080;-80
2021/07/09 03:15:16;;;;;;;7.57;2.42;;;23.60;72.80;;;;;;3160700;28;20380;-80
2021/07/09 03:16:48;;;;;;;4.38;2.00;;;23.50;72.90;;;;;;3160856;28;20535;-80
2021/07/09 03:18:19;;;;;;;2.63;2.00;;;23.50;72.80;;;;;;3160745;28;20468;-79
2021/07/09 03:19:51;;;;;;;3.85;2.13;;;23.50;72.80;;;;;;3160206;28;20446;-80
2021/07/09 03:21:21;;;;;;;4.10;2.20;;;23.50;72.80;;;;;;3160525;28;20080;-81
2021/07/09 03:22:53;;;;;;;4.95;2.00;;;23.60;72.70;;;;;;3160606;28;20040;-80
2021/07/09 03:24:25;;;;;;;5.07;2.20;;;23.60;72.70;;;;;;3160833;28;20076;-80
2021/07/09 03:25:57;;;;;;;3.35;1.90;;;23.60;72.70;;;;;;3160704;28;20083;-78
2021/07/09 03:27:30;;;;;;;;;;;23.60;72.70;;;;;;3161697;28;20044;-80
2021/07/09 03:29:02;;;;;;;4.70;2.20;;;23.50;72.90;;;;;;3161061;28;19962;-80
2021/07/09 03:30:33;;;;;;;3.50;2.15;;;23.50;72.70;;;;;;3159631;28;20480;-80
2021/07/09 03:32:05;;;;;;;3.10;2.17;;;23.50;72.70;;;;;;3159700;28;20044;-79
2021/07/09 03:33:37;;;;;;;2.40;2.10;;;23.60;72.60;;;;;;3162077;28;20542;-80
2021/07/09 03:35:09;;;;;;;2.60;1.98;;;23.60;72.60;;;;;;3161910;28;20052;-78
2021/07/09 03:36:43;;;;;;;4.35;2.20;;;23.60;72.80;;;;;;3161802;28;20132;-80
2021/07/09 03:38:14;;;;;;;2.60;2.20;;;23.60;72.70;;;;;;3161999;28;20511;-80
2021/07/09 03:39:46;;;;;;;6.70;2.20;;;23.60;72.60;;;;;;3162163;28;20083;-80
2021/07/09 03:41:18;;;;;;;5.90;2.15;;;23.60;72.60;;;;;;3162159;28;20492;-80
2021/07/09 03:42:51;;;;;;;7.40;2.28;;;23.60;72.70;;;;;;3159294;28;20076;-81
2021/07/09 03:44:21;;;;;;;;;;;23.60;72.70;;;;;;3153106;28;21498;-80
2021/07/09 03:45:53;;;;;;;8.30;2.50;;;23.60;72.70;;;;;;3162162;28;19927;-80
2021/07/09 03:47:23;;;;;;;9.02;2.40;;;23.60;72.70;;;;;;3162111;28;20112;-80
2021/07/09 03:48:55;;;;;;;3.17;2.03;;;23.60;72.70;;;;;;3150210;28;20048;-80
2021/07/09 03:50:26;;;;;;;2.67;1.95;;;23.50;72.70;;;;;;3149706;28;20085;-80
2021/07/09 03:51:57;;;;;;;4.25;2.20;;;23.50;72.70;;;;;;3149482;28;20044;-78
2021/07/09 03:53:29;;;;;;;3.45;2.30;;;23.50;72.80;;;;;;3149815;28;20080;-79
2021/07/09 03:54:59;;;;;;;5.80;2.35;;;23.50;72.80;;;;;;3149269;28;20439;-80
2021/07/09 03:56:31;;;;;;;3.35;2.10;;;23.50;72.80;;;;;;3149204;28;20048;-80
2021/07/09 03:58:04;;;;;;;5.30;2.63;;;23.50;72.80;;;;;;3149828;28;20409;-80
2021/07/09 03:59:36;;;;;;;5.05;2.15;;;23.50;72.80;;;;;;3149608;28;20080;-80
2021/07/09 04:01:08;;;;;;;5.25;1.73;;;23.50;72.80;;;;;;3154051;28;20101;-80
2021/07/09 04:02:38;;;;;;;8.15;2.40;;;23.50;72.70;;;;;;3156572;28;20076;-80
2021/07/09 04:04:10;;;;;;;4.28;2.30;;;23.50;72.70;;;;;;3160047;28;20488;-80
2021/07/09 04:05:41;;;;;;;3.45;2.30;;;23.50;72.70;;;;;;3157617;28;20075;-79
2021/07/09 04:07:12;;;;;;;3.50;2.28;;;23.50;72.90;;;;;;3162199;28;20040;-79
2021/07/09 04:08:44;;;;;;;5.72;1.92;;;23.50;72.90;;;;;;3162020;28;20079;-80
2021/07/09 04:10:16;;;;;;;6.07;2.00;;;23.50;72.80;;;;;;3161942;28;20087;-80
2021/07/09 04:11:48;;;;;;;2.90;2.05;;;23.50;72.80;;;;;;3162313;28;20048;-80
2021/07/09 04:13:21;;;;;;;5.28;2.08;;;23.50;72.70;;;;;;3162269;28;20087;-81
2021/07/09 04:14:51;;;;;;;;;;;23.50;72.70;;;;;;3162343;28;20082;-78
2021/07/09 04:16:23;;;;;;;5.78;2.00;;;23.50;72.70;;;;;;3162355;28;20292;-79
2021/07/09 04:17:55;;;;;;;4.10;2.35;;;23.50;72.70;;;;;;3162120;28;20174;-79
2021/07/09 04:19:25;;;;;;;6.82;2.25;;;23.50;72.70;;;;;;3161809;28;20079;-79
2021/07/09 04:20:57;;;;;;;3.22;2.08;;;23.50;72.70;;;;;;3161249;28;20040;-79
2021/07/09 04:22:27;;;;;;;3.83;2.00;;;23.50;72.70;;;;;;3161990;28;20083;-79
2021/07/09 04:23:59;;;;;;;2.35;2.15;;;23.50;72.60;;;;;;3161787;28;20192;-79
2021/07/09 04:25:30;;;;;;;2.97;2.00;;;23.50;72.70;;;;;;3162135;28;20071;-80
2021/07/09 04:27:01;;;;;;;3.70;2.30;;;23.50;72.60;;;;;;3161807;28;20511;-80
2021/07/09 04:28:34;;;;;;;4.75;2.17;;;23.50;72.60;;;;;;3162163;28;20043;-80
2021/07/09 04:30:06;;;;;;;;;;;23.50;72.60;;;;;;3162162;28;20512;-78
2021/07/09 04:31:38;;;;;;;2.55;2.10;;;23.50;72.70;;;;;;3161805;28;19951;-79
2021/07/09 04:33:09;;;;;;;4.97;1.92;;;23.50;72.80;;;;;;3162545;28;20487;-80
2021/07/09 04:34:41;;;;;;;5.43;2.17;;;23.50;72.80;;;;;;3162400;28;20456;-80
2021/07/09 04:36:12;;;;;;;2.13;1.85;;;23.50;72.80;;;;;;3161666;28;20083;-80
2021/07/09 04:37:43;;;;;;;3.20;2.17;;;23.50;72.80;;;;;;3162086;28;20090;-80
2021/07/09 04:39:15;;;;;;;2.40;2.20;;;23.50;72.80;;;;;;3161861;28;20048;-80
2021/07/09 04:40:46;;;;;;;3.70;2.05;;;23.50;72.80;;;;;;3160455;28;20075;-80
2021/07/09 04:42:18;;;;;;;5.40;2.15;;;23.50;72.70;;;;;;3161863;28;20040;-80
2021/07/09 04:43:51;;;;;;;2.83;2.10;;;23.50;72.80;;;;;;3158273;28;20075;-80
2021/07/09 04:45:22;;;;;;;2.40;2.20;;;23.50;72.80;;;;;;3160005;28;20483;-79
2021/07/09 04:46:53;;;;;;;3.53;2.10;;;23.50;72.90;;;;;;3154280;28;20084;-80
2021/07/09 04:48:25;;;;;;;2.53;2.33;;;23.50;73.00;;;;;;3161455;28;20047;-80
2021/07/09 04:49:56;;;;;;;3.38;2.33;;;23.50;72.90;;;;;;3161614;28;20076;-80
2021/07/09 04:51:28;;;;;;;4.90;2.13;;;23.50;73.00;;;;;;3161364;28;20420;-80
2021/07/09 04:53:00;;;;;;;5.10;2.20;;;23.50;73.00;;;;;;3162032;28;20092;-80
2021/07/09 04:54:30;;;;;;;2.60;2.10;;;23.50;73.00;;;;;;3149527;28;20420;-78
2021/07/09 04:56:02;;;;;;;3.63;2.20;;;23.50;72.90;;;;;;3149248;28;20098;-79
2021/07/09 04:57:33;;;;;;;4.32;1.88;;;23.50;73.00;;;;;;3148649;28;20488;-78
2021/07/09 04:59:06;;;;;;;3.08;2.38;;;23.50;73.00;;;;;;3148544;28;20084;-78
2021/07/09 05:00:38;;;;;;;;;;;23.50;73.00;;;;;;3148568;28;20072;-77
2021/07/09 05:02:09;;;;;;;2.30;2.10;;;23.50;73.00;;;;;;3152237;28;19955;-78
2021/07/09 05:03:41;;;;;;;4.22;2.42;;;23.50;73.00;;;;;;3148655;28;20072;-78
2021/07/09 05:05:14;;;;;;;7.95;2.50;;;23.50;73.10;;;;;;3158533;28;20507;-78
2021/07/09 05:06:44;;;;;;;5.32;2.50;;;23.50;73.30;;;;;;3160322;28;20105;-78
2021/07/09 05:08:16;;;;;;;7.63;2.33;;;23.50;73.30;;;;;;3159952;28;20125;-77
2021/07/09 05:09:47;;;;;;;9.40;2.75;;;23.50;73.20;;;;;;3160802;28;20072;-78
2021/07/09 05:11:19;;;;;;;4.07;2.15;;;23.50;73.30;;;;;;3157776;28;20086;-78
2021/07/09 05:12:50;;;;;;;7.25;2.30;;;23.50;73.20;;;;;;3148388;28;20520;-78
2021/07/09 05:14:22;;;;;;;6.78;2.30;;;23.50;73.20;;;;;;3148021;28;20489;-78
2021/07/09 05:15:54;;;;;;;5.73;2.20;;;23.50;73.40;;;;;;3147936;28;20443;-78
2021/07/09 05:17:25;;;;;;;6.40;2.30;;;23.50;73.40;;;;;;3148043;28;20084;-78
2021/07/09 05:18:57;;;;;;;6.15;2.15;;;23.50;73.40;;;;;;3151930;28;20075;-78
2021/07/09 05:20:29;;;;;;;15.00;2.60;;;23.50;73.40;;;;;;3160464;28;20071;-78
2021/07/09 05:22:00;;;;;;;23.48;2.80;;;23.50;73.70;;;;;;3149721;28;20087;-76
2021/07/09 05:23:32;;;;;;;7.22;2.30;;;23.60;74.30;;;;;;3149821;28;20379;-78
2021/07/09 05:25:04;;;;;;;12.88;2.58;;;23.60;73.50;;;;;;3150590;28;20289;-79
2021/07/09 05:26:36;;;;;;;16.42;2.60;;;23.60;73.60;;;;;;3149522;28;20076;-79
2021/07/09 05:28:08;;;;;;;14.32;2.80;;;23.60;73.60;;;;;;3150423;28;20097;-77
2021/07/09 05:29:41;;;;;;;8.70;2.70;;;23.60;73.50;;;;;;3157036;28;20045;-79
2021/07/09 05:31:12;;;;;;;18.13;3.08;;;23.60;73.40;;;;;;3153542;28;20111;-79
2021/07/09 05:32:44;;;;;;;9.25;2.40;;;23.60;73.50;;;;;;3158608;28;20040;-78
2021/07/09 05:34:15;;;;;;;14.88;2.83;;;23.60;73.30;;;;;;3150139;28;20139;-77
2021/07/09 05:35:47;;;;;;;15.98;2.47;;;23.60;73.20;;;;;;3157671;28;20078;-78
2021/07/09 05:37:19;;;;;;;16.48;2.80;;;23.60;73.20;;;;;;3155566;28;20468;-79
2021/07/09 05:38:49;;;;;;;7.70;2.60;;;23.60;73.20;;;;;;3159982;28;20126;-77
2021/07/09 05:40:21;;;;;;;16.10;2.60;;;23.60;73.30;;;;;;3152969;28;20181;-78
2021/07/09 05:41:53;;;;;;;13.25;2.40;;;23.60;73.20;;;;;;3162192;28;20086;-78
2021/07/09 05:43:23;;;;;;;18.70;2.17;;;23.60;73.30;;;;;;3162087;28;20071;-79
2021/07/09 05:44:56;;;;;;;9.02;2.58;;;23.50;73.40;;;;;;3159861;28;20047;-77
2021/07/09 05:46:28;;;;;;;;;;;23.50;73.40;;;;;;3160263;28;20071;-77
2021/07/09 05:47:59;;;;;;;19.35;2.78;;;23.50;73.50;;;;;;3150042;28;19925;-78
2021/07/09 05:49:31;;;;;;;9.60;2.10;;;23.50;73.40;;;;;;3148389;28;20090;-78
2021/07/09 05:51:02;;;;;;;14.55;2.72;;;23.50;73.40;;;;;;3157261;28;20534;-77
2021/07/09 05:52:34;;;;;;;6.15;2.15;;;23.50;73.50;;;;;;3160179;28;20071;-77
2021/07/09 05:54:05;;;;;;;8.52;2.10;;;23.50;73.50;;;;;;3159272;28;20083;-77
2021/07/09 05:55:37;;;;;;;11.75;2.20;;;23.50;73.50;;;;;;3159554;28;20075;-77
2021/07/09 05:57:09;;;;;;;9.02;2.67;;;23.50;73.40;;;;;;3159258;28;20072;-76
2021/07/09 05:58:40;;;;;;;8.85;2.35;;;23.50;73.50;;;;;;3156958;28;20067;-76
2021/07/09 06:00:14;;;;;;;6.35;2.30;;;23.50;74.30;;;;;;3158166;28;20082;-78
2021/07/09 06:01:46;;;;;;;10.48;2.20;;;23.40;73.60;;;;;;3159499;28;20052;-76
2021/07/09 06:03:17;;;;;;;10.75;2.03;;;23.50;73.60;;;;;;3155429;28;20072;-76
2021/07/09 06:04:49;;;;;;;6.90;2.22;;;23.50;73.60;;;;;;3152635;28;20075;-76
2021/07/09 06:06:19;;;;;;;6.43;2.17;;;23.50;73.70;;;;;;3155681;28;20230;-75
2021/07/09 06:07:51;;;;;;;11.32;2.22;;;23.50;73.60;;;;;;3154374;28;20459;-76
2021/07/09 06:09:23;;;;;;;7.38;2.00;;;23.50;73.60;;;;;;3154623;28;20087;-76
2021/07/09 06:10:53;;;;;;;4.68;2.28;;;23.50;73.60;;;;;;3156485;28;20075;-76
2021/07/09 06:12:25;;;;;;;7.72;2.10;;;23.50;73.60;;;;;;3159632;28;20040;-77
2021/07/09 06:13:56;;;;;;;9.55;2.05;;;23.50;73.60;;;;;;3150996;28;20207;-73
2021/07/09 06:15:29;;;;;;;8.90;2.40;;;23.40;73.60;;;;;;3158522;28;20071;-78
2021/07/09 06:17:01;;;;;;;3.88;1.90;;;23.40;73.60;;;;;;3152260;28;20056;-77
2021/07/09 06:18:33;;;;;;;4.57;1.80;;;23.40;73.60;;;;;;3156543;28;20063;-78
2021/07/09 06:20:05;;;;;;;5.15;2.10;;;23.50;73.60;;;;;;3154552;28;20483;-74
2021/07/09 06:21:36;;;;;;;4.57;1.73;;;23.40;73.60;;;;;;3158659;28;20036;-74
2021/07/09 06:23:08;;;;;;;3.58;1.83;;;23.40;73.60;;;;;;3157287;28;20079;-75
2021/07/09 06:24:38;;;;;;;5.45;1.75;;;23.50;73.70;;;;;;3156290;28;20086;-77
2021/07/09 06:26:10;;;;;;;4.07;2.50;;;23.40;73.60;;;;;;3155827;28;20040;-75
2021/07/09 06:27:42;;;;;;;11.50;3.20;;;23.40;72.80;;;;;;3152857;28;20491;-74
2021/07/09 06:29:13;;;;;;;6.10;2.88;;;23.30;72.80;;;;;;3159294;28;20079;-75
2021/07/09 06:30:45;;;;;;;18.40;3.63;;;23.30;73.40;;;;;;3158935;28;20080;-76
2021/07/09 06:32:17;;;;;;;17.90;3.53;;;23.30;73.50;;;;;;3151741;28;20401;-76
2021/07/09 06:33:48;;;;;;;27.35;3.42;;;23.40;73.40;;;;;;3159736;28;20317;-76
2021/07/09 06:36:59;;;;;;;11.25;3.70;;;23.20;72.70;;;;;;3180592;22;20130;-74
2021/07/09 06:38:30;;;;;;;16.65;3.60;;;23.10;72.70;;;;;;3157894;28;20068;-75
2021/07/09 06:40:02;;;;;;;9.88;3.90;;;23.10;72.70;;;;;;3165892;28;20087;-75
2021/07/09 06:41:34;;;;;;;8.73;3.33;;;23.10;72.70;;;;;;3164553;28;20468;-74
2021/07/09 06:43:04;;;;;;;8.27;3.42;;;23.00;72.70;;;;;;3158498;28;20103;-75
2021/07/09 06:44:36;;;;;;;8.00;3.10;;;23.00;72.70;;;;;;3156021;28;20044;-75
2021/07/09 06:46:10;;;;;;;4.63;3.22;;;22.90;72.70;;;;;;3159093;28;20479;-75
2021/07/09 06:47:41;;;;;;;7.47;3.00;;;23.00;72.80;;;;;;3150719;28;20044;-71
2021/07/09 06:49:13;;;;;;;6.63;3.00;;;23.00;73.00;;;;;;3168621;28;20527;-75
2021/07/09 06:50:44;;;;;;;6.22;2.97;;;23.00;72.80;;;;;;3163406;28;20048;-73
2021/07/09 06:52:15;;;;;;;7.35;2.92;;;23.00;72.60;;;;;;3146978;28;20532;-75
2021/07/09 06:53:47;;;;;;;7.38;3.22;;;23.00;72.40;;;;;;3147366;28;20044;-76
2021/07/09 06:55:19;;;;;;;8.15;2.97;;;23.10;72.70;;;;;;3146239;28;20129;-75
2021/07/09 06:56:50;;;;;;;6.57;3.47;;;23.00;72.60;;;;;;3146955;28;20133;-77
2021/07/09 06:58:21;;;;;;;8.75;3.30;;;23.00;72.70;;;;;;3147215;28;20135;-77
2021/07/09 06:59:52;;;;;;;7.82;3.30;;;23.00;72.80;;;;;;3147976;28;20082;-82
2021/07/09 07:01:24;;;;;;;7.55;3.20;;;22.90;72.80;;;;;;3148739;28;20076;-79
2021/07/09 07:02:56;;;;;;;6.97;3.60;;;22.90;73.00;;;;;;3156457;28;20495;-78
2021/07/09 07:04:27;;;;;;;6.85;3.20;;;22.90;73.00;;;;;;3161213;28;20087;-79
2021/07/09 07:05:58;;;;;;;6.55;2.95;;;22.80;73.00;;;;;;3160355;28;20504;-78
2021/07/09 07:07:30;;;;;;;3.75;3.17;;;22.80;73.10;;;;;;3158772;28;20079;-78
2021/07/09 07:09:01;;;;;;;6.32;3.38;;;22.80;73.10;;;;;;3160790;28;20090;-78
2021/07/09 07:10:32;;;;;;;5.28;2.90;;;22.80;73.10;;;;;;3152555;28;20076;-79
2021/07/09 07:12:05;;;;;;;6.05;3.25;;;22.80;73.10;;;;;;3150510;28;20044;-79
2021/07/09 07:13:36;;;;;;;5.38;3.60;;;22.80;73.10;;;;;;3152618;28;20594;-79
2021/07/09 07:15:09;;;;;;;4.28;3.05;;;22.70;73.00;;;;;;3163806;28;20071;-79
2021/07/09 07:16:42;;;;;;;6.97;3.28;;;22.70;72.90;;;;;;3162202;28;20080;-80
2021/07/09 07:18:13;;;;;;;;;;;22.70;72.90;;;;;;3155597;28;20075;-79
2021/07/09 07:19:44;;;;;;;6.78;3.38;;;22.70;72.90;;;;;;3162714;28;19963;-77
2021/07/09 07:21:16;;;;;;;6.70;3.50;;;22.70;72.90;;;;;;3165874;28;20040;-79
2021/07/09 07:22:47;;;;;;;5.22;3.17;;;22.70;72.90;;;;;;3175746;28;20083;-83
2021/07/09 07:24:19;;;;;;;4.13;3.20;;;22.70;73.00;;;;;;3176702;28;20523;-83
2021/07/09 07:25:50;;;;;;;7.25;3.15;;;22.70;72.90;;;;;;3173204;28;20080;-84
2021/07/09 07:27:24;;;;;;;6.13;3.03;;;22.70;73.00;;;;;;3167198;28;20052;-80
2021/07/09 07:28:56;;;;;;;3.55;3.20;;;22.70;72.90;;;;;;3165760;28;20047;-79
2021/07/09 07:30:28;;;;;;;7.15;3.50;;;22.60;73.00;;;;;;3158914;28;20075;-79
2021/07/09 07:32:00;;;;;;;3.53;2.90;;;22.70;73.00;;;;;;3154749;28;20076;-82
2021/07/09 07:33:32;;;;;;;;;;;22.60;73.00;;;;;;3159066;28;20566;-84
2021/07/09 07:35:04;;;;;;;6.07;3.20;;;22.60;73.10;;;;;;3160470;28;19924;-80
2021/07/09 07:36:35;;;;;;;6.82;3.08;;;22.60;73.10;;;;;;3165209;28;20076;-81
2021/07/09 07:38:07;;;;;;;6.30;3.15;;;22.60;73.10;;;;;;3172782;28;20067;-79
2021/07/09 07:39:39;;;;;;;6.47;3.00;;;22.60;73.20;;;;;;3149644;28;20060;-80
2021/07/09 07:41:10;;;;;;;4.45;3.20;;;22.60;73.20;;;;;;3149357;28;20049;-83
2021/07/09 07:42:42;;;;;;;4.18;2.90;;;22.60;73.40;;;;;;3150480;28;20072;-83
2021/07/09 07:44:13;;;;;;;3.95;3.05;;;22.60;73.50;;;;;;3150872;28;20512;-81
2021/07/09 07:45:45;;;;;;;5.38;3.20;;;22.60;73.50;;;;;;3149713;28;20048;-78
2021/07/09 07:47:21;;;;;;;6.55;2.78;;;22.60;73.60;;;;;;3155620;28;20078;-81
2021/07/09 07:48:53;;;;;;;7.28;2.88;;;22.60;73.60;;;;;;3163455;28;20059;-86
2021/07/09 07:50:26;;;;;;;4.85;2.92;;;22.60;73.60;;;;;;3162465;28;20044;-83
2021/07/09 07:51:57;;;;;;;4.25;2.80;;;22.60;73.60;;;;;;3162674;28;20035;-84
2021/07/09 07:53:28;;;;;;;6.40;3.00;;;22.60;73.60;;;;;;3154257;28;20095;-76
2021/07/09 07:54:59;;;;;;;4.00;2.42;;;22.60;73.70;;;;;;3158461;28;20435;-73
2021/07/09 07:56:31;;;;;;;5.50;2.80;;;22.70;73.60;;;;;;3168789;28;20126;-77
2021/07/09 07:58:02;;;;;;;4.43;2.72;;;22.80;73.60;;;;;;3168121;28;20090;-75
2021/07/09 07:59:34;;;;;;;5.78;3.00;;;22.80;73.60;;;;;;3154563;28;20051;-76